createdAt,value
2023-05-10T00:01:38.695Z,12.59
2023-05-10T00:04:05.845Z,12.28
2023-05-10T00:06:32.718Z,12.33
2023-05-10T00:08:59.398Z,12.32
2023-05-10T00:11:25.986Z,11.80
2023-05-10T00:13:52.683Z,12.19
2023-05-10T00:16:19.340Z,11.95
2023-05-10T00:18:46.008Z,11.96
2023-05-10T00:21:12.646Z,11.98
2023-05-10T00:23:39.734Z,12.06
2023-05-10T00:26:06.438Z,11.77
2023-05-10T00:28:33.059Z,11.72
2023-05-10T00:30:59.713Z,11.82
2023-05-10T00:33:26.402Z,11.82
2023-05-10T00:35:53.556Z,11.81
2023-05-10T00:38:20.142Z,12.01
2023-05-10T00:40:47.162Z,11.78
2023-05-10T00:43:13.758Z,11.55
2023-05-10T00:45:42.366Z,11.52
2023-05-10T00:48:10.621Z,11.41
2023-05-10T00:50:37.652Z,11.38
2023-05-10T00:53:04.678Z,11.32
2023-05-10T00:55:32.261Z,10.95
2023-05-10T00:57:58.969Z,11.01
2023-05-10T01:00:26.818Z,11.00
2023-05-10T01:02:55.234Z,11.06
2023-05-10T01:05:22.236Z,11.13
2023-05-10T01:07:49.235Z,11.19
2023-05-10T01:10:16.346Z,11.37
2023-05-10T01:12:46.174Z,11.19
2023-05-10T01:15:15.538Z,11.10
2023-05-10T01:17:45.198Z,11.24
2023-05-10T01:20:13.156Z,11.16
2023-05-10T01:23:08.436Z,11.24
2023-05-10T01:25:59.554Z,11.01
2023-05-10T01:28:44.436Z,11.07
2023-05-10T01:31:35.982Z,11.14
2023-05-10T01:34:13.988Z,11.15
2023-05-10T01:36:43.776Z,10.77
2023-05-10T01:39:21.471Z,10.71
2023-05-10T01:42:15.100Z,10.97
2023-05-10T01:44:54.383Z,10.70
2023-05-10T01:47:51.465Z,10.96
2023-05-10T01:50:25.719Z,10.92
2023-05-10T01:52:55.754Z,10.83
2023-05-10T01:55:23.892Z,10.91
2023-05-10T01:58:10.504Z,10.93
2023-05-10T02:00:41.070Z,10.83
2023-05-10T02:03:09.813Z,10.99
2023-05-10T02:05:37.752Z,10.88
2023-05-10T02:08:07.794Z,10.74
2023-05-10T02:10:38.618Z,10.80
2023-05-10T02:13:08.362Z,10.78
2023-05-10T02:15:36.197Z,10.76
2023-05-10T02:18:05.105Z,10.70
2023-05-10T02:20:33.428Z,11.09
2023-05-10T02:23:02.016Z,10.65
2023-05-10T02:25:31.434Z,10.49
2023-05-10T02:28:01.110Z,10.51
2023-05-10T02:30:29.925Z,10.80
2023-05-10T02:32:57.575Z,10.69
2023-05-10T02:35:24.840Z,10.44
2023-05-10T02:37:53.238Z,10.61
2023-05-10T02:40:22.454Z,10.76
2023-05-10T02:42:51.517Z,10.56
2023-05-10T02:45:24.572Z,10.69
2023-05-10T02:47:52.676Z,10.76
2023-05-10T02:50:21.212Z,10.36
2023-05-10T02:52:51.043Z,10.34
2023-05-10T02:55:22.132Z,10.47
2023-05-10T02:58:01.198Z,10.60
2023-05-10T03:00:28.139Z,10.54
2023-05-10T03:02:55.020Z,10.41
2023-05-10T03:05:22.097Z,10.26
2023-05-10T03:07:49.517Z,10.67
2023-05-10T03:10:16.455Z,10.43
2023-05-10T03:13:02.281Z,10.50
2023-05-10T03:15:50.171Z,10.57
2023-05-10T03:18:24.359Z,10.68
2023-05-10T03:20:57.606Z,10.75
2023-05-10T03:23:31.138Z,10.74
2023-05-10T03:25:59.014Z,10.93
2023-05-10T03:28:27.752Z,10.74
2023-05-10T03:30:56.247Z,10.81
2023-05-10T03:33:22.921Z,11.09
2023-05-10T03:35:49.540Z,11.42
2023-05-10T03:38:16.182Z,11.20
2023-05-10T03:40:42.923Z,11.35
2023-05-10T03:43:12.657Z,11.32
2023-05-10T03:45:39.261Z,11.19
2023-05-10T03:48:06.754Z,11.16
2023-05-10T03:50:33.396Z,11.45
2023-05-10T03:53:00.100Z,11.55
2023-05-10T03:55:26.810Z,11.60
2023-05-10T03:57:54.892Z,11.51
2023-05-10T04:00:25.047Z,11.57
2023-05-10T04:02:51.813Z,11.65
2023-05-10T04:05:18.708Z,11.69
2023-05-10T04:07:46.655Z,11.72
2023-05-10T04:10:13.566Z,11.53
2023-05-10T04:12:40.233Z,11.80
2023-05-10T04:15:07.809Z,11.84
2023-05-10T04:17:34.775Z,11.76
2023-05-10T04:20:03.498Z,11.85
2023-05-10T04:22:31.268Z,11.98
2023-05-10T04:24:57.863Z,12.14
2023-05-10T04:27:24.508Z,12.52
2023-05-10T04:29:51.668Z,12.42
2023-05-10T04:32:20.169Z,12.45
2023-05-10T04:34:47.309Z,12.33
2023-05-10T04:37:13.980Z,12.72
2023-05-10T04:39:42.310Z,12.83
2023-05-10T04:42:09.459Z,13.10
2023-05-10T04:44:36.421Z,13.25
2023-05-10T04:47:03.918Z,13.52
2023-05-10T04:49:31.209Z,13.59
2023-05-10T04:51:57.830Z,13.60
2023-05-10T04:54:24.688Z,13.41
2023-05-10T04:56:51.389Z,13.80
2023-05-10T04:59:18.225Z,13.73
2023-05-10T05:01:44.967Z,14.09
2023-05-10T05:04:16.591Z,14.34
2023-05-10T05:06:44.179Z,14.19
2023-05-10T05:09:11.353Z,14.05
2023-05-10T05:11:38.022Z,14.42
2023-05-10T05:14:04.641Z,14.60
2023-05-10T05:16:32.392Z,14.93
2023-05-10T05:18:59.019Z,15.29
2023-05-10T05:21:27.878Z,14.90
2023-05-10T05:23:54.645Z,14.83
2023-05-10T05:26:21.226Z,14.69
2023-05-10T05:28:49.783Z,14.89
2023-05-10T05:31:16.540Z,15.05
2023-05-10T05:33:43.238Z,15.76
2023-05-10T05:36:10.143Z,15.95
2023-05-10T05:38:36.747Z,16.51
2023-05-10T05:41:04.078Z,16.30
2023-05-10T05:43:35.020Z,16.67
2023-05-10T05:46:02.685Z,16.55
2023-05-10T05:48:32.601Z,16.50
2023-05-10T05:50:59.187Z,16.16
2023-05-10T05:53:25.842Z,15.37
2023-05-10T05:55:56.846Z,16.34
2023-05-10T05:58:26.069Z,16.53
2023-05-10T06:00:53.136Z,16.77
2023-05-10T06:03:20.482Z,17.17
2023-05-10T06:05:47.619Z,17.27
2023-05-10T06:08:17.472Z,17.66
2023-05-10T06:10:44.068Z,17.49
2023-05-10T06:13:11.142Z,17.69
2023-05-10T06:15:37.843Z,17.69
2023-05-10T06:18:04.684Z,17.43
2023-05-10T06:20:32.668Z,17.50
2023-05-10T06:22:59.715Z,17.48
2023-05-10T06:25:26.435Z,17.27
2023-05-10T06:27:58.057Z,17.15
2023-05-10T06:30:31.123Z,17.65
2023-05-10T06:33:00.946Z,17.41
2023-05-10T06:35:27.512Z,17.88
2023-05-10T06:37:54.540Z,17.52
2023-05-10T06:40:21.310Z,17.46
2023-05-10T06:42:48.804Z,17.63
2023-05-10T06:45:17.528Z,17.97
2023-05-10T06:47:44.716Z,17.96
2023-05-10T06:50:14.508Z,18.28
2023-05-10T06:52:41.047Z,18.07
2023-05-10T06:55:08.444Z,17.60
2023-05-10T06:57:35.059Z,17.84
2023-05-10T07:00:05.867Z,17.65
2023-05-10T07:02:33.936Z,18.02
2023-05-10T07:05:15.462Z,17.92
2023-05-10T07:07:42.703Z,17.42
2023-05-10T07:10:10.011Z,17.69
2023-05-10T07:12:36.774Z,17.92
2023-05-10T07:15:04.118Z,17.90
2023-05-10T07:17:30.866Z,17.72
2023-05-10T07:19:57.572Z,18.02
2023-05-10T07:22:24.152Z,17.85
2023-05-10T07:24:50.751Z,17.87
2023-05-10T07:27:17.423Z,18.29
2023-05-10T07:29:44.048Z,18.68
2023-05-10T07:32:13.704Z,18.11
2023-05-10T07:34:42.699Z,18.13
2023-05-10T07:37:09.341Z,18.51
2023-05-10T07:39:36.083Z,18.43
2023-05-10T07:42:03.929Z,19.12
2023-05-10T07:44:30.642Z,18.69
2023-05-10T07:46:58.264Z,19.38
2023-05-10T07:49:25.372Z,20.06
2023-05-10T07:51:52.069Z,19.42
2023-05-10T07:54:18.651Z,20.11
2023-05-10T07:56:48.039Z,20.38
2023-05-10T07:59:17.445Z,20.19
2023-05-10T08:01:45.388Z,19.68
2023-05-10T08:04:15.481Z,19.00
2023-05-10T08:06:42.423Z,19.22
2023-05-10T08:09:10.514Z,19.17
2023-05-10T08:11:40.731Z,19.54
2023-05-10T08:14:07.641Z,19.19
2023-05-10T08:16:35.317Z,19.79
2023-05-10T08:19:02.540Z,19.87
2023-05-10T08:21:29.587Z,20.43
2023-05-10T08:23:56.352Z,19.72
2023-05-10T08:26:23.039Z,19.51
2023-05-10T08:28:50.884Z,20.15
2023-05-10T08:31:17.657Z,19.71
2023-05-10T08:33:44.777Z,20.40
2023-05-10T08:36:11.656Z,20.42
2023-05-10T08:38:39.945Z,19.66
2023-05-10T08:41:07.179Z,20.46
2023-05-10T08:43:37.043Z,21.14
2023-05-10T08:46:08.821Z,20.94
2023-05-10T08:48:35.962Z,20.85
2023-05-10T08:51:05.376Z,21.33
2023-05-10T08:53:34.248Z,20.93
2023-05-10T08:56:03.167Z,20.13
2023-05-10T08:58:29.814Z,21.17
2023-05-10T09:00:58.115Z,22.12
2023-05-10T09:03:24.916Z,21.82
2023-05-10T09:05:51.791Z,21.92
2023-05-10T09:08:18.751Z,21.42
2023-05-10T09:10:48.363Z,21.44
2023-05-10T09:13:15.432Z,22.09
2023-05-10T09:15:42.464Z,21.68
2023-05-10T09:18:09.313Z,21.43
2023-05-10T09:20:36.160Z,21.42
2023-05-10T09:23:02.890Z,21.35
2023-05-10T09:25:29.632Z,21.34
2023-05-10T09:27:56.531Z,21.96
2023-05-10T09:30:30.167Z,21.68
2023-05-10T09:33:00.571Z,21.51
2023-05-10T09:35:32.522Z,23.18
2023-05-10T09:38:03.714Z,22.76
2023-05-10T09:40:31.812Z,22.34
2023-05-10T09:43:02.047Z,22.98
2023-05-10T09:45:31.118Z,21.90
2023-05-10T09:48:00.575Z,21.88
2023-05-10T09:50:27.760Z,21.72
2023-05-10T09:53:04.301Z,21.24
2023-05-10T09:55:41.256Z,22.28
2023-05-10T09:58:11.644Z,21.82
2023-05-10T10:00:53.359Z,22.35
2023-05-10T10:03:21.486Z,22.67
2023-05-10T10:05:49.759Z,23.06
2023-05-10T10:08:18.856Z,22.51
2023-05-10T10:10:47.176Z,21.94
2023-05-10T10:13:14.258Z,22.33
2023-05-10T10:15:41.738Z,22.48
2023-05-10T10:18:13.409Z,23.01
2023-05-10T10:20:40.185Z,23.24
2023-05-10T10:23:06.830Z,22.74
2023-05-10T10:25:33.681Z,23.30
2023-05-10T10:28:58.631Z,22.92
2023-05-10T10:31:33.461Z,22.58
2023-05-10T10:34:08.348Z,22.20
2023-05-10T10:36:44.857Z,21.53
2023-05-10T10:39:12.849Z,21.53
2023-05-10T10:41:58.792Z,22.67
2023-05-10T10:44:37.814Z,23.39
2023-05-10T10:47:12.854Z,23.25
2023-05-10T10:49:49.765Z,21.92
2023-05-10T10:52:34.749Z,22.28
2023-05-10T10:55:23.545Z,22.00
2023-05-10T10:58:01.138Z,22.97
2023-05-10T11:00:31.608Z,22.67
2023-05-10T11:03:09.007Z,23.59
2023-05-10T11:05:49.705Z,23.68
2023-05-10T11:08:19.419Z,23.40
2023-05-10T11:11:13.449Z,23.14
2023-05-10T11:13:42.500Z,22.26
2023-05-10T11:16:26.430Z,22.94
2023-05-10T11:19:05.454Z,24.03
2023-05-10T11:21:33.702Z,23.61
2023-05-10T11:24:01.934Z,23.56
2023-05-10T11:26:34.851Z,22.33
2023-05-10T11:29:02.972Z,21.55
2023-05-10T11:31:30.474Z,21.83
2023-05-10T11:33:59.881Z,21.15
2023-05-10T11:36:28.805Z,22.55
2023-05-10T11:38:57.733Z,22.17
2023-05-10T11:41:26.277Z,22.12
2023-05-10T11:43:54.964Z,22.13
2023-05-10T11:46:25.153Z,22.20
2023-05-10T11:48:54.052Z,22.43
2023-05-10T11:51:24.680Z,22.78
2023-05-10T11:53:56.276Z,22.66
2023-05-10T11:56:24.519Z,23.53
2023-05-10T11:58:58.741Z,24.00
2023-05-10T12:01:27.348Z,21.60
2023-05-10T12:03:56.444Z,21.14
2023-05-10T12:06:23.539Z,21.59
2023-05-10T12:08:54.679Z,21.02
2023-05-10T12:11:25.934Z,20.20
2023-05-10T12:13:52.783Z,20.23
2023-05-10T12:16:29.296Z,20.45
2023-05-10T12:19:00.826Z,21.14
2023-05-10T12:21:29.658Z,21.88
2023-05-10T12:24:01.303Z,21.58
2023-05-10T12:26:29.788Z,21.55
2023-05-10T12:29:12.436Z,21.21
2023-05-10T12:31:57.505Z,21.98
2023-05-10T12:34:36.100Z,22.34
2023-05-10T12:37:05.874Z,22.12
2023-05-10T12:39:44.016Z,22.88
2023-05-10T12:42:11.540Z,23.41
2023-05-10T12:44:38.186Z,23.05
2023-05-10T12:47:04.887Z,22.88
2023-05-10T12:49:32.269Z,22.54
2023-05-10T12:51:59.025Z,22.22
2023-05-10T12:54:26.253Z,22.91
2023-05-10T12:56:52.862Z,22.83
2023-05-10T12:59:19.515Z,23.40
2023-05-10T13:01:46.248Z,22.35
2023-05-10T13:04:13.029Z,21.80
2023-05-10T13:06:40.731Z,20.68
2023-05-10T13:09:08.035Z,20.96
2023-05-10T13:11:35.006Z,21.30
2023-05-10T13:14:01.707Z,21.85
2023-05-10T13:16:28.453Z,22.28
2023-05-10T13:18:55.197Z,21.67
2023-05-10T13:21:21.808Z,21.58
2023-05-10T13:23:48.529Z,21.71
2023-05-10T13:26:16.229Z,20.87
2023-05-10T13:28:42.884Z,20.41
2023-05-10T13:31:09.597Z,20.66
2023-05-10T13:33:36.222Z,20.51
2023-05-10T13:36:02.893Z,20.39
2023-05-10T13:38:29.501Z,20.79
2023-05-10T13:40:56.294Z,20.77
2023-05-10T13:43:23.003Z,21.05
2023-05-10T13:45:49.658Z,21.20
2023-05-10T13:48:17.393Z,22.23
2023-05-10T13:50:44.341Z,23.12
2023-05-10T13:53:11.086Z,22.37
2023-05-10T13:58:22.130Z,22.34
2023-05-10T14:00:49.007Z,21.51
2023-05-10T14:03:15.783Z,21.15
2023-05-10T14:05:42.441Z,21.50
2023-05-10T14:08:10.450Z,21.46
2023-05-10T14:10:37.950Z,21.70
2023-05-10T14:13:04.675Z,22.62
2023-05-10T14:15:31.749Z,21.61
2023-05-10T14:17:58.456Z,20.87
2023-05-10T14:20:25.149Z,20.51
2023-05-10T14:22:54.091Z,20.22
2023-05-10T14:25:20.835Z,20.12
2023-05-10T14:27:47.612Z,20.26
2023-05-10T14:30:14.583Z,20.22
2023-05-10T14:32:41.267Z,20.25
2023-05-10T14:35:14.047Z,20.28
2023-05-10T14:37:42.093Z,19.93
2023-05-10T14:40:10.349Z,20.44
2023-05-10T14:42:37.008Z,20.65
2023-05-10T14:45:04.808Z,20.36
2023-05-10T14:47:31.532Z,20.28
2023-05-10T14:49:58.150Z,20.05
2023-05-10T14:52:24.813Z,20.16
2023-05-10T14:54:51.445Z,20.38
2023-05-10T14:57:18.081Z,20.25
2023-05-10T14:59:44.688Z,20.41
2023-05-10T15:02:12.325Z,20.39
2023-05-10T15:04:39.445Z,20.69
2023-05-10T15:07:06.759Z,20.44
2023-05-10T15:09:33.463Z,20.38
2023-05-10T15:12:00.170Z,20.57
2023-05-10T15:14:26.783Z,20.58
2023-05-10T15:16:53.464Z,20.62
2023-05-10T15:19:23.557Z,20.16
2023-05-10T15:21:51.154Z,20.16
2023-05-10T15:24:17.877Z,20.15
2023-05-10T15:26:44.697Z,19.93
2023-05-10T15:29:11.466Z,19.70
2023-05-10T15:31:40.541Z,19.62
2023-05-10T15:34:07.296Z,19.95
2023-05-10T15:36:33.980Z,20.08
2023-05-10T15:39:00.584Z,20.48
2023-05-10T15:41:27.229Z,20.48
2023-05-10T15:43:54.727Z,20.28
2023-05-10T15:46:21.599Z,19.87
2023-05-10T15:48:48.372Z,19.59
2023-05-10T15:51:15.591Z,19.62
2023-05-10T15:53:56.478Z,19.45
2023-05-10T15:56:31.113Z,19.45
2023-05-10T15:58:57.869Z,19.30
2023-05-10T16:01:24.662Z,19.36
2023-05-10T16:03:51.533Z,19.34
2023-05-10T16:06:18.336Z,19.19
2023-05-10T16:08:45.032Z,18.94
2023-05-10T16:11:11.748Z,19.02
2023-05-10T16:13:38.452Z,19.04
2023-05-10T16:16:06.842Z,19.14
2023-05-10T16:18:33.566Z,19.17
2023-05-10T16:21:01.933Z,19.08
2023-05-10T16:23:29.065Z,19.20
2023-05-10T16:25:55.694Z,19.27
2023-05-10T16:28:22.574Z,19.24
2023-05-10T16:30:49.527Z,19.11
2023-05-10T16:33:16.880Z,19.29
2023-05-10T16:35:44.151Z,19.25
2023-05-10T16:38:11.241Z,19.05
2023-05-10T16:40:37.938Z,18.49
2023-05-10T16:43:05.617Z,18.46
2023-05-10T16:45:32.705Z,18.38
2023-05-10T16:47:59.359Z,18.18
2023-05-10T16:50:26.053Z,18.20
2023-05-10T16:52:52.670Z,18.27
2023-05-10T16:55:19.599Z,18.17
2023-05-10T16:57:46.411Z,17.96
2023-05-10T17:00:13.584Z,18.01
2023-05-10T17:02:40.501Z,17.93
2023-05-10T17:05:07.950Z,17.75
2023-05-10T17:07:34.766Z,17.63
2023-05-10T17:10:01.543Z,17.59
2023-05-10T17:12:28.208Z,17.56
2023-05-10T17:14:54.845Z,17.42
2023-05-10T17:17:23.812Z,17.22
2023-05-10T17:19:50.443Z,17.17
2023-05-10T17:22:19.748Z,17.06
2023-05-10T17:24:46.609Z,17.11
2023-05-10T17:27:13.797Z,16.91
2023-05-10T17:29:40.541Z,16.82
2023-05-10T17:32:09.151Z,16.70
2023-05-10T17:34:36.791Z,16.58
2023-05-10T17:37:04.000Z,16.52
2023-05-10T17:39:30.705Z,16.33
2023-05-10T17:41:57.394Z,16.31
2023-05-10T17:44:25.867Z,16.23
2023-05-10T17:46:52.637Z,16.14
2023-05-10T17:49:19.587Z,16.17
2023-05-10T17:51:48.197Z,16.04
2023-05-10T17:54:15.137Z,15.91
2023-05-10T17:56:42.122Z,15.80
2023-05-10T17:59:08.841Z,15.80
2023-05-10T18:01:36.678Z,15.82
2023-05-10T18:04:06.699Z,15.74
2023-05-10T18:06:37.232Z,15.74
2023-05-10T18:09:05.229Z,15.60
2023-05-10T18:11:32.004Z,15.45
2023-05-10T18:13:59.926Z,15.39
2023-05-10T18:16:26.933Z,15.27
2023-05-10T18:18:53.806Z,15.29
2023-05-10T18:21:20.653Z,15.27
2023-05-10T18:23:47.574Z,15.22
2023-05-10T18:26:14.821Z,15.26
2023-05-10T18:28:42.154Z,15.11
2023-05-10T18:31:08.936Z,14.96
2023-05-10T18:33:35.552Z,14.90
2023-05-10T18:36:02.461Z,14.76
2023-05-10T18:38:30.100Z,14.71
2023-05-10T18:40:57.795Z,14.78
2023-05-10T18:43:27.057Z,14.66
2023-05-10T18:45:53.718Z,14.50
2023-05-10T18:48:21.396Z,14.45
2023-05-10T18:50:48.560Z,14.38
2023-05-10T18:53:15.177Z,14.33
2023-05-10T18:55:41.739Z,14.25
2023-05-10T18:58:08.492Z,14.27
2023-05-10T19:00:38.235Z,14.31
2023-05-10T19:03:04.938Z,14.26
2023-05-10T19:05:31.817Z,14.24
2023-05-10T19:07:58.585Z,14.24
2023-05-10T19:10:28.047Z,14.20
2023-05-10T19:12:54.967Z,14.18
2023-05-10T19:15:22.272Z,14.23
2023-05-10T19:17:50.356Z,14.12
2023-05-10T19:20:17.819Z,14.02
2023-05-10T19:23:02.208Z,13.89
2023-05-10T19:25:34.880Z,14.02
2023-05-10T19:28:01.955Z,13.95
2023-05-10T19:30:30.627Z,13.96
2023-05-10T19:32:58.167Z,13.99
2023-05-10T19:35:25.105Z,13.96
2023-05-10T19:37:52.053Z,13.93
2023-05-10T19:40:18.998Z,13.91
2023-05-10T19:42:45.908Z,13.80
2023-05-10T19:45:12.954Z,13.78
2023-05-10T19:47:40.036Z,13.82
2023-05-10T19:50:07.832Z,13.74
2023-05-10T19:52:34.725Z,13.76
2023-05-10T19:55:01.651Z,13.79
2023-05-10T19:57:28.509Z,13.68
2023-05-10T19:59:55.371Z,13.63
2023-05-10T20:02:22.287Z,13.65
2023-05-10T20:04:49.024Z,13.73
2023-05-10T20:07:15.974Z,13.59
2023-05-10T20:09:44.531Z,13.69
2023-05-10T20:12:11.413Z,13.42
2023-05-10T20:14:38.499Z,13.38
2023-05-10T20:17:05.810Z,13.41
2023-05-10T20:19:32.731Z,13.49
2023-05-10T20:21:59.983Z,13.43
2023-05-10T20:24:26.885Z,13.39
2023-05-10T20:26:54.080Z,13.33
2023-05-10T20:29:21.087Z,13.36
2023-05-10T20:31:47.922Z,13.32
2023-05-10T20:34:14.770Z,13.25
2023-05-10T20:36:41.648Z,13.25
2023-05-10T20:39:09.483Z,13.21
2023-05-10T20:41:36.375Z,13.16
2023-05-10T20:44:03.377Z,13.07
2023-05-10T20:46:30.745Z,13.05
2023-05-10T20:48:57.740Z,12.91
2023-05-10T20:51:24.686Z,12.91
2023-05-10T20:53:51.783Z,12.91
2023-05-10T20:56:19.013Z,12.85
2023-05-10T20:58:45.729Z,12.89
2023-05-10T21:01:12.526Z,13.10
2023-05-10T21:03:39.204Z,12.98
2023-05-10T21:06:05.890Z,13.02
2023-05-10T21:08:32.460Z,13.02
2023-05-10T21:10:59.641Z,12.94
2023-05-10T21:13:26.372Z,13.06
2023-05-10T21:15:53.305Z,12.99
2023-05-10T21:18:20.011Z,12.98
2023-05-10T21:20:46.654Z,12.94
2023-05-10T21:23:13.699Z,13.02
2023-05-10T21:25:40.368Z,13.02
2023-05-10T21:28:07.176Z,12.97
2023-05-10T21:30:33.989Z,13.18
2023-05-10T21:33:01.758Z,13.12
2023-05-10T21:35:30.407Z,13.15
2023-05-10T21:37:57.453Z,13.15
2023-05-10T21:40:24.290Z,13.07
2023-05-10T21:42:51.134Z,12.95
2023-05-10T21:45:19.268Z,12.97
2023-05-10T21:47:46.283Z,12.97
2023-05-10T21:50:13.032Z,13.17
2023-05-10T21:52:39.846Z,13.01
2023-05-10T21:55:08.544Z,12.99
2023-05-10T21:57:35.284Z,13.05
2023-05-10T22:00:01.895Z,13.03
2023-05-10T22:02:29.617Z,13.06
2023-05-10T22:04:59.640Z,13.06
2023-05-10T22:07:26.527Z,13.13
2023-05-10T22:09:53.110Z,13.17
2023-05-10T22:12:19.700Z,13.06
2023-05-10T22:14:47.528Z,13.02
2023-05-10T22:17:16.780Z,13.13
2023-05-10T22:19:43.607Z,13.16
2023-05-10T22:22:11.896Z,13.14
2023-05-10T22:24:38.650Z,13.12
2023-05-10T22:27:05.721Z,13.16
2023-05-10T22:29:32.416Z,13.13
2023-05-10T22:31:59.062Z,13.08
2023-05-10T22:34:25.800Z,13.11
2023-05-10T22:36:52.617Z,13.05
2023-05-10T22:39:19.212Z,13.07
2023-05-10T22:41:45.818Z,13.07
2023-05-10T22:44:12.423Z,12.91
2023-05-10T22:46:39.126Z,12.88
2023-05-10T22:49:06.310Z,12.87
2023-05-10T22:51:32.944Z,12.86
2023-05-10T22:53:59.532Z,12.83
2023-05-10T22:56:26.141Z,12.78
2023-05-10T22:58:52.869Z,12.63
2023-05-10T23:01:19.540Z,12.58
2023-05-10T23:03:46.698Z,12.48
2023-05-10T23:06:13.517Z,12.43
2023-05-10T23:08:40.212Z,12.30
2023-05-10T23:11:06.885Z,12.25
2023-05-10T23:13:33.710Z,12.10
2023-05-10T23:16:06.600Z,12.05
2023-05-10T23:18:34.419Z,12.02
2023-05-10T23:21:01.146Z,11.82
2023-05-10T23:23:30.235Z,11.74
2023-05-10T23:25:56.866Z,11.66
2023-05-10T23:28:23.476Z,11.82
2023-05-10T23:30:55.663Z,11.75
2023-05-10T23:33:22.981Z,11.86
2023-05-10T23:35:49.643Z,11.73
2023-05-10T23:38:16.650Z,11.61
2023-05-10T23:40:43.350Z,11.69
2023-05-10T23:43:09.958Z,11.67
2023-05-10T23:45:36.634Z,11.54
2023-05-10T23:48:03.480Z,11.52
2023-05-10T23:50:30.184Z,11.43
2023-05-10T23:52:56.836Z,11.38
2023-05-10T23:55:23.496Z,11.24
2023-05-10T23:57:50.123Z,11.20
